sensor_id;sensor_type;location;lat;lon;timestamp;temperature;humidity
52036;DHT22;38046;49.448;32.074;2023-04-03T00:01:31;9.90;92.80
52036;DHT22;38046;49.448;32.074;2023-04-03T00:03:57;9.90;92.80
52036;DHT22;38046;49.448;32.074;2023-04-03T00:06:23;9.90;92.70
52036;DHT22;38046;49.448;32.074;2023-04-03T00:08:49;9.90;92.60
52036;DHT22;38046;49.448;32.074;2023-04-03T00:11:16;9.90;92.60
52036;DHT22;38046;49.448;32.074;2023-04-03T00:13:42;9.90;92.60
52036;DHT22;38046;49.448;32.074;2023-04-03T00:16:09;9.90;92.70
52036;DHT22;38046;49.448;32.074;2023-04-03T00:18:36;9.90;92.60
52036;DHT22;38046;49.448;32.074;2023-04-03T00:21:02;9.90;92.50
52036;DHT22;38046;49.448;32.074;2023-04-03T00:23:28;9.90;92.50
52036;DHT22;38046;49.448;32.074;2023-04-03T00:25:53;9.90;92.40
52036;DHT22;38046;49.448;32.074;2023-04-03T00:28:19;9.90;92.40
52036;DHT22;38046;49.448;32.074;2023-04-03T00:30:46;9.90;92.30
52036;DHT22;38046;49.448;32.074;2023-04-03T00:33:14;9.90;92.30
52036;DHT22;38046;49.448;32.074;2023-04-03T00:35:41;9.90;92.30
52036;DHT22;38046;49.448;32.074;2023-04-03T00:38:07;9.90;92.30
52036;DHT22;38046;49.448;32.074;2023-04-03T00:40:38;9.90;92.30
52036;DHT22;38046;49.448;32.074;2023-04-03T00:43:12;10.00;92.30
52036;DHT22;38046;49.448;32.074;2023-04-03T00:45:40;9.90;92.20
52036;DHT22;38046;49.448;32.074;2023-04-03T00:48:09;10.00;92.10
52036;DHT22;38046;49.448;32.074;2023-04-03T00:50:39;10.00;92.10
52036;DHT22;38046;49.448;32.074;2023-04-03T00:53:07;9.90;92.10
52036;DHT22;38046;49.448;32.074;2023-04-03T00:55:35;9.90;92.20
52036;DHT22;38046;49.448;32.074;2023-04-03T00:58:02;9.90;92.10
52036;DHT22;38046;49.448;32.074;2023-04-03T01:00:28;9.90;92.20
52036;DHT22;38046;49.448;32.074;2023-04-03T01:02:54;9.90;92.40
52036;DHT22;38046;49.448;32.074;2023-04-03T01:05:21;9.90;92.10
52036;DHT22;38046;49.448;32.074;2023-04-03T01:07:48;9.90;92.00
52036;DHT22;38046;49.448;32.074;2023-04-03T01:10:15;9.90;92.10
52036;DHT22;38046;49.448;32.074;2023-04-03T01:12:45;9.90;92.00
52036;DHT22;38046;49.448;32.074;2023-04-03T01:15:14;9.90;92.10
52036;DHT22;38046;49.448;32.074;2023-04-03T01:25:49;10.00;91.80
52036;DHT22;38046;49.448;32.074;2023-04-03T01:28:24;10.00;91.70
52036;DHT22;38046;49.448;32.074;2023-04-03T01:33:43;10.00;91.70
52036;DHT22;38046;49.448;32.074;2023-04-03T01:36:09;10.00;91.60
52036;DHT22;38046;49.448;32.074;2023-04-03T01:38:35;10.00;91.50
52036;DHT22;38046;49.448;32.074;2023-04-03T01:41:01;10.00;91.50
52036;DHT22;38046;49.448;32.074;2023-04-03T01:43:26;10.00;91.50
52036;DHT22;38046;49.448;32.074;2023-04-03T01:45:52;10.00;91.50
52036;DHT22;38046;49.448;32.074;2023-04-03T01:48:20;10.00;91.50
52036;DHT22;38046;49.448;32.074;2023-04-03T01:50:46;10.00;91.60
52036;DHT22;38046;49.448;32.074;2023-04-03T01:53:12;10.00;91.50
52036;DHT22;38046;49.448;32.074;2023-04-03T01:55:38;10.00;91.40
52036;DHT22;38046;49.448;32.074;2023-04-03T01:58:03;10.00;91.40
52036;DHT22;38046;49.448;32.074;2023-04-03T02:00:29;10.00;91.40
52036;DHT22;38046;49.448;32.074;2023-04-03T02:02:55;10.00;91.30
52036;DHT22;38046;49.448;32.074;2023-04-03T02:05:20;10.00;91.40
52036;DHT22;38046;49.448;32.074;2023-04-03T02:07:46;9.90;91.50
52036;DHT22;38046;49.448;32.074;2023-04-03T02:10:12;9.90;91.60
52036;DHT22;38046;49.448;32.074;2023-04-03T02:12:38;9.90;91.70
52036;DHT22;38046;49.448;32.074;2023-04-03T02:15:04;9.80;91.80
52036;DHT22;38046;49.448;32.074;2023-04-03T02:17:30;9.80;92.00
52036;DHT22;38046;49.448;32.074;2023-04-03T02:19:55;9.80;92.00
52036;DHT22;38046;49.448;32.074;2023-04-03T02:22:21;9.70;92.10
52036;DHT22;38046;49.448;32.074;2023-04-03T02:24:46;9.70;92.30
52036;DHT22;38046;49.448;32.074;2023-04-03T02:27:12;9.70;92.30
52036;DHT22;38046;49.448;32.074;2023-04-03T02:29:38;9.70;92.20
52036;DHT22;38046;49.448;32.074;2023-04-03T02:32:04;9.60;92.30
52036;DHT22;38046;49.448;32.074;2023-04-03T02:34:29;9.60;92.40
52036;DHT22;38046;49.448;32.074;2023-04-03T02:36:55;9.60;92.50
52036;DHT22;38046;49.448;32.074;2023-04-03T02:39:21;9.60;92.50
52036;DHT22;38046;49.448;32.074;2023-04-03T02:41:47;9.60;92.50
52036;DHT22;38046;49.448;32.074;2023-04-03T02:44:12;9.60;92.40
52036;DHT22;38046;49.448;32.074;2023-04-03T02:46:38;9.60;92.40
52036;DHT22;38046;49.448;32.074;2023-04-03T02:49:04;9.60;92.40
52036;DHT22;38046;49.448;32.074;2023-04-03T02:51:30;9.70;92.40
52036;DHT22;38046;49.448;32.074;2023-04-03T02:53:55;9.70;92.30
52036;DHT22;38046;49.448;32.074;2023-04-03T02:56:21;9.70;92.30
52036;DHT22;38046;49.448;32.074;2023-04-03T02:58:47;9.60;92.30
52036;DHT22;38046;49.448;32.074;2023-04-03T03:01:13;9.60;92.40
52036;DHT22;38046;49.448;32.074;2023-04-03T03:03:39;9.60;92.40
52036;DHT22;38046;49.448;32.074;2023-04-03T03:06:16;9.60;92.50
52036;DHT22;38046;49.448;32.074;2023-04-03T03:08:42;9.60;92.30
52036;DHT22;38046;49.448;32.074;2023-04-03T03:11:08;9.60;92.40
52036;DHT22;38046;49.448;32.074;2023-04-03T03:13:34;9.60;92.40
52036;DHT22;38046;49.448;32.074;2023-04-03T03:16:00;9.50;92.40
52036;DHT22;38046;49.448;32.074;2023-04-03T03:18:25;9.50;92.50
52036;DHT22;38046;49.448;32.074;2023-04-03T03:20:56;9.50;92.40
52036;DHT22;38046;49.448;32.074;2023-04-03T03:23:23;9.50;92.40
52036;DHT22;38046;49.448;32.074;2023-04-03T03:25:55;9.40;92.50
52036;DHT22;38046;49.448;32.074;2023-04-03T03:28:21;9.40;92.60
52036;DHT22;38046;49.448;32.074;2023-04-03T03:30:47;9.40;92.60
52036;DHT22;38046;49.448;32.074;2023-04-03T03:33:12;9.40;92.50
52036;DHT22;38046;49.448;32.074;2023-04-03T03:35:38;9.40;92.60
52036;DHT22;38046;49.448;32.074;2023-04-03T03:38:03;9.40;92.60
52036;DHT22;38046;49.448;32.074;2023-04-03T03:40:29;9.40;92.50
52036;DHT22;38046;49.448;32.074;2023-04-03T03:42:55;9.40;92.60
52036;DHT22;38046;49.448;32.074;2023-04-03T03:45:20;9.40;92.60
52036;DHT22;38046;49.448;32.074;2023-04-03T03:47:46;9.40;92.60
52036;DHT22;38046;49.448;32.074;2023-04-03T03:50:11;9.40;92.70
52036;DHT22;38046;49.448;32.074;2023-04-03T03:52:37;9.40;92.50
52036;DHT22;38046;49.448;32.074;2023-04-03T03:55:04;9.50;92.50
52036;DHT22;38046;49.448;32.074;2023-04-03T03:57:30;9.50;92.50
52036;DHT22;38046;49.448;32.074;2023-04-03T03:59:56;9.50;92.60
52036;DHT22;38046;49.448;32.074;2023-04-03T04:02:21;9.50;92.40
52036;DHT22;38046;49.448;32.074;2023-04-03T04:04:48;9.50;92.30
52036;DHT22;38046;49.448;32.074;2023-04-03T04:07:13;9.50;92.30
52036;DHT22;38046;49.448;32.074;2023-04-03T04:09:39;9.50;92.30
52036;DHT22;38046;49.448;32.074;2023-04-03T04:12:05;9.50;92.40
52036;DHT22;38046;49.448;32.074;2023-04-03T04:14:31;9.50;92.20
52036;DHT22;38046;49.448;32.074;2023-04-03T04:16:57;9.50;92.20
52036;DHT22;38046;49.448;32.074;2023-04-03T04:19:22;9.50;92.10
52036;DHT22;38046;49.448;32.074;2023-04-03T04:21:48;9.50;92.00
52036;DHT22;38046;49.448;32.074;2023-04-03T04:24:13;9.50;92.00
52036;DHT22;38046;49.448;32.074;2023-04-03T04:26:39;9.50;92.00
52036;DHT22;38046;49.448;32.074;2023-04-03T04:29:05;9.50;92.10
52036;DHT22;38046;49.448;32.074;2023-04-03T04:31:31;9.50;92.20
52036;DHT22;38046;49.448;32.074;2023-04-03T04:33:57;9.50;92.20
52036;DHT22;38046;49.448;32.074;2023-04-03T04:36:22;9.50;92.30
52036;DHT22;38046;49.448;32.074;2023-04-03T04:38:48;9.50;92.30
52036;DHT22;38046;49.448;32.074;2023-04-03T04:41:13;9.50;92.30
52036;DHT22;38046;49.448;32.074;2023-04-03T04:43:40;9.50;92.20
52036;DHT22;38046;49.448;32.074;2023-04-03T04:46:08;9.50;92.30
52036;DHT22;38046;49.448;32.074;2023-04-03T04:48:35;9.50;92.30
52036;DHT22;38046;49.448;32.074;2023-04-03T04:51:02;9.50;92.20
52036;DHT22;38046;49.448;32.074;2023-04-03T04:53:27;9.50;92.30
52036;DHT22;38046;49.448;32.074;2023-04-03T04:55:53;9.50;92.20
52036;DHT22;38046;49.448;32.074;2023-04-03T04:58:19;9.50;92.20
52036;DHT22;38046;49.448;32.074;2023-04-03T05:00:45;9.50;92.20
52036;DHT22;38046;49.448;32.074;2023-04-03T05:03:11;9.50;92.20
52036;DHT22;38046;49.448;32.074;2023-04-03T05:05:37;9.50;92.20
52036;DHT22;38046;49.448;32.074;2023-04-03T05:08:04;9.50;92.30
52036;DHT22;38046;49.448;32.074;2023-04-03T05:10:30;9.50;92.30
52036;DHT22;38046;49.448;32.074;2023-04-03T05:12:57;9.50;92.40
52036;DHT22;38046;49.448;32.074;2023-04-03T05:15:22;9.50;92.40
52036;DHT22;38046;49.448;32.074;2023-04-03T05:17:48;9.50;92.30
52036;DHT22;38046;49.448;32.074;2023-04-03T05:20:14;9.50;92.40
52036;DHT22;38046;49.448;32.074;2023-04-03T05:22:40;9.50;92.30
52036;DHT22;38046;49.448;32.074;2023-04-03T05:25:06;9.50;92.30
52036;DHT22;38046;49.448;32.074;2023-04-03T05:27:32;9.60;92.40
52036;DHT22;38046;49.448;32.074;2023-04-03T05:29:57;9.60;92.30
52036;DHT22;38046;49.448;32.074;2023-04-03T05:32:24;9.60;92.30
52036;DHT22;38046;49.448;32.074;2023-04-03T05:34:52;9.70;92.30
52036;DHT22;38046;49.448;32.074;2023-04-03T05:37:18;9.70;92.20
52036;DHT22;38046;49.448;32.074;2023-04-03T05:39:43;9.70;92.10
52036;DHT22;38046;49.448;32.074;2023-04-03T05:42:09;9.70;92.10
52036;DHT22;38046;49.448;32.074;2023-04-03T05:44:37;9.70;92.10
52036;DHT22;38046;49.448;32.074;2023-04-03T05:47:02;9.80;92.20
52036;DHT22;38046;49.448;32.074;2023-04-03T05:49:28;9.80;92.20
52036;DHT22;38046;49.448;32.074;2023-04-03T05:51:54;9.90;92.20
52036;DHT22;38046;49.448;32.074;2023-04-03T05:54:27;9.90;92.10
52036;DHT22;38046;49.448;32.074;2023-04-03T05:56:54;10.00;92.00
52036;DHT22;38046;49.448;32.074;2023-04-03T05:59:20;10.00;91.90
52036;DHT22;38046;49.448;32.074;2023-04-03T06:01:47;10.00;91.80
52036;DHT22;38046;49.448;32.074;2023-04-03T06:04:13;10.00;91.70
52036;DHT22;38046;49.448;32.074;2023-04-03T06:06:54;10.00;91.70
52036;DHT22;38046;49.448;32.074;2023-04-03T06:09:22;10.10;91.60
52036;DHT22;38046;49.448;32.074;2023-04-03T06:11:48;10.10;91.80
52036;DHT22;38046;49.448;32.074;2023-04-03T06:14:13;10.10;91.80
52036;DHT22;38046;49.448;32.074;2023-04-03T06:16:39;10.10;91.70
52036;DHT22;38046;49.448;32.074;2023-04-03T06:19:09;10.10;92.00
52036;DHT22;38046;49.448;32.074;2023-04-03T06:21:35;10.10;91.70
52036;DHT22;38046;49.448;32.074;2023-04-03T06:24:02;10.20;91.80
52036;DHT22;38046;49.448;32.074;2023-04-03T06:26:28;10.20;91.70
52036;DHT22;38046;49.448;32.074;2023-04-03T06:28:54;10.30;91.70
52036;DHT22;38046;49.448;32.074;2023-04-03T06:31:20;10.20;91.70
52036;DHT22;38046;49.448;32.074;2023-04-03T06:33:45;10.30;91.70
52036;DHT22;38046;49.448;32.074;2023-04-03T06:36:12;10.30;91.70
52036;DHT22;38046;49.448;32.074;2023-04-03T06:38:37;10.30;91.80
52036;DHT22;38046;49.448;32.074;2023-04-03T06:41:03;10.40;91.70
52036;DHT22;38046;49.448;32.074;2023-04-03T06:43:29;10.40;91.70
52036;DHT22;38046;49.448;32.074;2023-04-03T06:45:56;10.40;91.70
52036;DHT22;38046;49.448;32.074;2023-04-03T06:48:22;10.50;91.70
52036;DHT22;38046;49.448;32.074;2023-04-03T06:50:48;10.60;91.70
52036;DHT22;38046;49.448;32.074;2023-04-03T06:53:14;10.60;91.60
52036;DHT22;38046;49.448;32.074;2023-04-03T06:55:40;10.70;91.50
52036;DHT22;38046;49.448;32.074;2023-04-03T06:58:06;10.70;91.40
52036;DHT22;38046;49.448;32.074;2023-04-03T07:00:32;10.80;91.40
52036;DHT22;38046;49.448;32.074;2023-04-03T07:02:59;10.90;91.30
52036;DHT22;38046;49.448;32.074;2023-04-03T07:05:25;10.90;91.10
52036;DHT22;38046;49.448;32.074;2023-04-03T07:07:51;11.00;91.00
52036;DHT22;38046;49.448;32.074;2023-04-03T07:10:17;11.10;90.80
52036;DHT22;38046;49.448;32.074;2023-04-03T07:12:43;11.10;90.50
52036;DHT22;38046;49.448;32.074;2023-04-03T07:15:09;11.20;90.50
52036;DHT22;38046;49.448;32.074;2023-04-03T07:17:35;11.20;90.50
52036;DHT22;38046;49.448;32.074;2023-04-03T07:20:02;11.30;90.50
52036;DHT22;38046;49.448;32.074;2023-04-03T07:22:29;11.40;90.50
52036;DHT22;38046;49.448;32.074;2023-04-03T07:24:55;11.40;90.50
52036;DHT22;38046;49.448;32.074;2023-04-03T07:27:21;11.50;90.30
52036;DHT22;38046;49.448;32.074;2023-04-03T07:29:47;11.60;90.20
52036;DHT22;38046;49.448;32.074;2023-04-03T07:32:15;11.60;90.10
52036;DHT22;38046;49.448;32.074;2023-04-03T07:34:41;11.70;90.10
52036;DHT22;38046;49.448;32.074;2023-04-03T07:37:07;11.80;90.00
52036;DHT22;38046;49.448;32.074;2023-04-03T07:39:34;11.90;89.80
52036;DHT22;38046;49.448;32.074;2023-04-03T07:42:00;11.90;89.40
52036;DHT22;38046;49.448;32.074;2023-04-03T07:44:27;11.90;89.00
52036;DHT22;38046;49.448;32.074;2023-04-03T07:46:53;11.90;88.70
52036;DHT22;38046;49.448;32.074;2023-04-03T07:49:20;12.00;88.50
52036;DHT22;38046;49.448;32.074;2023-04-03T07:51:48;12.00;88.20
52036;DHT22;38046;49.448;32.074;2023-04-03T07:54:14;12.00;88.20
52036;DHT22;38046;49.448;32.074;2023-04-03T07:56:46;12.10;88.30
52036;DHT22;38046;49.448;32.074;2023-04-03T07:59:12;12.20;88.20
52036;DHT22;38046;49.448;32.074;2023-04-03T08:01:38;12.30;88.20
52036;DHT22;38046;49.448;32.074;2023-04-03T08:04:04;12.30;87.80
52036;DHT22;38046;49.448;32.074;2023-04-03T08:06:31;12.40;87.50
52036;DHT22;38046;49.448;32.074;2023-04-03T08:09:00;12.40;86.90
52036;DHT22;38046;49.448;32.074;2023-04-03T08:11:26;12.40;86.50
52036;DHT22;38046;49.448;32.074;2023-04-03T08:13:52;12.40;86.30
52036;DHT22;38046;49.448;32.074;2023-04-03T08:16:20;12.50;86.70
52036;DHT22;38046;49.448;32.074;2023-04-03T08:18:47;12.40;85.90
52036;DHT22;38046;49.448;32.074;2023-04-03T08:21:13;12.40;85.60
52036;DHT22;38046;49.448;32.074;2023-04-03T08:23:40;12.40;85.50
52036;DHT22;38046;49.448;32.074;2023-04-03T08:26:11;12.30;85.50
52036;DHT22;38046;49.448;32.074;2023-04-03T08:28:37;12.30;85.70
52036;DHT22;38046;49.448;32.074;2023-04-03T08:31:05;12.30;85.70
52036;DHT22;38046;49.448;32.074;2023-04-03T08:33:31;12.30;85.70
52036;DHT22;38046;49.448;32.074;2023-04-03T08:35:57;12.20;85.50
52036;DHT22;38046;49.448;32.074;2023-04-03T08:38:23;12.20;85.30
52036;DHT22;38046;49.448;32.074;2023-04-03T08:41:45;12.20;85.10
52036;DHT22;38046;49.448;32.074;2023-04-03T08:47:04;12.20;84.60
52036;DHT22;38046;49.448;32.074;2023-04-03T08:49:44;12.20;84.60
52036;DHT22;38046;49.448;32.074;2023-04-03T08:52:35;12.20;84.50
52036;DHT22;38046;49.448;32.074;2023-04-03T08:55:05;12.20;84.30
52036;DHT22;38046;49.448;32.074;2023-04-03T08:57:35;12.20;84.30
52036;DHT22;38046;49.448;32.074;2023-04-03T09:00:16;12.10;84.10
52036;DHT22;38046;49.448;32.074;2023-04-03T09:02:47;12.10;84.10
52036;DHT22;38046;49.448;32.074;2023-04-03T09:05:28;12.10;84.00
52036;DHT22;38046;49.448;32.074;2023-04-03T09:08:21;12.10;83.80
52036;DHT22;38046;49.448;32.074;2023-04-03T09:10:49;12.00;83.50
52036;DHT22;38046;49.448;32.074;2023-04-03T09:13:34;12.00;83.60
52036;DHT22;38046;49.448;32.074;2023-04-03T09:19:15;12.00;83.40
52036;DHT22;38046;49.448;32.074;2023-04-03T09:21:43;12.00;83.40
52036;DHT22;38046;49.448;32.074;2023-04-03T09:24:13;12.00;83.50
52036;DHT22;38046;49.448;32.074;2023-04-03T09:27:05;11.90;83.30
52036;DHT22;38046;49.448;32.074;2023-04-03T09:29:35;11.90;83.20
52036;DHT22;38046;49.448;32.074;2023-04-03T09:32:31;11.90;83.20
52036;DHT22;38046;49.448;32.074;2023-04-03T09:35:01;11.90;83.20
52036;DHT22;38046;49.448;32.074;2023-04-03T09:40:02;11.80;83.30
52036;DHT22;38046;49.448;32.074;2023-04-03T09:42:30;11.90;83.40
52036;DHT22;38046;49.448;32.074;2023-04-03T09:45:03;11.90;83.00
52036;DHT22;38046;49.448;32.074;2023-04-03T09:47:32;11.90;83.50
52036;DHT22;38046;49.448;32.074;2023-04-03T09:52:40;12.00;82.80
52036;DHT22;38046;49.448;32.074;2023-04-03T09:55:18;12.00;82.80
52036;DHT22;38046;49.448;32.074;2023-04-03T09:57:45;12.00;82.60
52036;DHT22;38046;49.448;32.074;2023-04-03T10:00:23;11.90;82.70
52036;DHT22;38046;49.448;32.074;2023-04-03T10:02:56;11.90;82.60
52036;DHT22;38046;49.448;32.074;2023-04-03T10:05:39;11.80;82.50
52036;DHT22;38046;49.448;32.074;2023-04-03T10:10:45;11.80;82.80
52036;DHT22;38046;49.448;32.074;2023-04-03T10:13:13;11.70;82.90
52036;DHT22;38046;49.448;32.074;2023-04-03T10:15:44;11.70;83.10
52036;DHT22;38046;49.448;32.074;2023-04-03T10:23:51;11.70;83.30
52036;DHT22;38046;49.448;32.074;2023-04-03T10:26:41;11.70;83.30
52036;DHT22;38046;49.448;32.074;2023-04-03T10:32:24;11.70;83.20
52036;DHT22;38046;49.448;32.074;2023-04-03T10:37:49;11.80;83.20
52036;DHT22;38046;49.448;32.074;2023-04-03T10:43:04;11.70;83.30
52036;DHT22;38046;49.448;32.074;2023-04-03T10:45:45;11.70;83.30
52036;DHT22;38046;49.448;32.074;2023-04-03T10:51:29;11.70;83.60
52036;DHT22;38046;49.448;32.074;2023-04-03T10:54:46;11.70;83.40
52036;DHT22;38046;49.448;32.074;2023-04-03T10:57:14;11.70;83.30
52036;DHT22;38046;49.448;32.074;2023-04-03T10:59:59;11.70;83.70
52036;DHT22;38046;49.448;32.074;2023-04-03T11:02:33;11.70;83.60
52036;DHT22;38046;49.448;32.074;2023-04-03T11:08:35;11.70;83.60
52036;DHT22;38046;49.448;32.074;2023-04-03T11:11:09;11.60;83.70
52036;DHT22;38046;49.448;32.074;2023-04-03T11:14:02;11.70;83.80
52036;DHT22;38046;49.448;32.074;2023-04-03T11:16:35;11.70;83.80
52036;DHT22;38046;49.448;32.074;2023-04-03T11:19:08;11.60;83.90
52036;DHT22;38046;49.448;32.074;2023-04-03T11:21:42;11.70;83.90
52036;DHT22;38046;49.448;32.074;2023-04-03T11:24:39;11.70;84.00
52036;DHT22;38046;49.448;32.074;2023-04-03T11:27:21;11.70;83.80
52036;DHT22;38046;49.448;32.074;2023-04-03T11:29:49;11.70;83.90
52036;DHT22;38046;49.448;32.074;2023-04-03T11:35:05;11.70;83.90
52036;DHT22;38046;49.448;32.074;2023-04-03T11:37:39;11.70;84.10
52036;DHT22;38046;49.448;32.074;2023-04-03T11:40:26;11.70;84.20
52036;DHT22;38046;49.448;32.074;2023-04-03T11:45:33;11.80;84.30
52036;DHT22;38046;49.448;32.074;2023-04-03T11:48:06;11.80;84.20
52036;DHT22;38046;49.448;32.074;2023-04-03T12:00:47;11.80;84.20
52036;DHT22;38046;49.448;32.074;2023-04-03T12:13:38;11.90;84.10
52036;DHT22;38046;49.448;32.074;2023-04-03T12:16:05;11.90;84.10
52036;DHT22;38046;49.448;32.074;2023-04-03T12:47:44;12.00;83.40
52036;DHT22;38046;49.448;32.074;2023-04-03T12:50:30;12.00;83.30
52036;DHT22;38046;49.448;32.074;2023-04-03T12:53:01;12.00;83.20
52036;DHT22;38046;49.448;32.074;2023-04-03T12:55:29;12.00;83.30
52036;DHT22;38046;49.448;32.074;2023-04-03T12:57:55;12.00;83.30
52036;DHT22;38046;49.448;32.074;2023-04-03T13:00:30;11.90;83.20
52036;DHT22;38046;49.448;32.074;2023-04-03T13:02:58;11.90;83.20
52036;DHT22;38046;49.448;32.074;2023-04-03T13:05:23;11.90;83.30
52036;DHT22;38046;49.448;32.074;2023-04-03T13:07:56;11.80;83.20
52036;DHT22;38046;49.448;32.074;2023-04-03T13:10:23;11.80;83.40
52036;DHT22;38046;49.448;32.074;2023-04-03T13:12:54;11.80;83.50
52036;DHT22;38046;49.448;32.074;2023-04-03T13:15:30;11.80;83.60
52036;DHT22;38046;49.448;32.074;2023-04-03T13:18:04;11.80;83.60
52036;DHT22;38046;49.448;32.074;2023-04-03T13:20:33;11.80;83.80
52036;DHT22;38046;49.448;32.074;2023-04-03T13:25:34;11.80;84.20
52036;DHT22;38046;49.448;32.074;2023-04-03T13:28:03;11.80;84.30
52036;DHT22;38046;49.448;32.074;2023-04-03T13:30:35;11.80;84.40
52036;DHT22;38046;49.448;32.074;2023-04-03T13:33:05;11.80;84.50
52036;DHT22;38046;49.448;32.074;2023-04-03T13:35:37;11.80;84.40
52036;DHT22;38046;49.448;32.074;2023-04-03T13:38:28;11.80;84.60
52036;DHT22;38046;49.448;32.074;2023-04-03T13:40:55;11.80;84.80
52036;DHT22;38046;49.448;32.074;2023-04-03T13:43:41;11.80;84.80
52036;DHT22;38046;49.448;32.074;2023-04-03T13:48:47;11.80;85.10
52036;DHT22;38046;49.448;32.074;2023-04-03T13:53:47;11.80;85.20
52036;DHT22;38046;49.448;32.074;2023-04-03T13:56:35;11.80;85.30
52036;DHT22;38046;49.448;32.074;2023-04-03T14:01:55;11.90;85.70
52036;DHT22;38046;49.448;32.074;2023-04-03T14:04:31;11.90;85.70
52036;DHT22;38046;49.448;32.074;2023-04-03T14:06:58;11.90;85.80
52036;DHT22;38046;49.448;32.074;2023-04-03T14:09:26;11.90;85.80
52036;DHT22;38046;49.448;32.074;2023-04-03T14:12:02;11.90;85.70
52036;DHT22;38046;49.448;32.074;2023-04-03T14:14:32;12.00;85.90
52036;DHT22;38046;49.448;32.074;2023-04-03T14:17:01;12.00;85.90
52036;DHT22;38046;49.448;32.074;2023-04-03T14:19:30;12.00;85.90
52036;DHT22;38046;49.448;32.074;2023-04-03T14:21:58;12.00;86.10
52036;DHT22;38046;49.448;32.074;2023-04-03T14:24:24;12.00;86.10
52036;DHT22;38046;49.448;32.074;2023-04-03T14:26:51;12.00;86.20
52036;DHT22;38046;49.448;32.074;2023-04-03T14:29:18;12.00;86.30
52036;DHT22;38046;49.448;32.074;2023-04-03T14:31:45;12.00;86.10
52036;DHT22;38046;49.448;32.074;2023-04-03T14:34:12;12.00;86.20
52036;DHT22;38046;49.448;32.074;2023-04-03T14:36:39;12.10;86.30
52036;DHT22;38046;49.448;32.074;2023-04-03T14:39:05;12.10;86.30
52036;DHT22;38046;49.448;32.074;2023-04-03T14:41:32;12.10;86.20
52036;DHT22;38046;49.448;32.074;2023-04-03T14:43:58;12.00;86.20
52036;DHT22;38046;49.448;32.074;2023-04-03T14:46:32;12.10;86.30
52036;DHT22;38046;49.448;32.074;2023-04-03T14:48:58;12.10;86.20
52036;DHT22;38046;49.448;32.074;2023-04-03T14:51:25;12.10;86.20
52036;DHT22;38046;49.448;32.074;2023-04-03T14:53:52;12.10;86.20
52036;DHT22;38046;49.448;32.074;2023-04-03T14:56:27;12.10;86.30
52036;DHT22;38046;49.448;32.074;2023-04-03T14:59:01;12.10;86.30
52036;DHT22;38046;49.448;32.074;2023-04-03T15:01:27;12.10;86.40
52036;DHT22;38046;49.448;32.074;2023-04-03T15:03:53;12.00;86.30
52036;DHT22;38046;49.448;32.074;2023-04-03T15:06:19;12.10;86.50
52036;DHT22;38046;49.448;32.074;2023-04-03T15:08:47;12.10;86.50
52036;DHT22;38046;49.448;32.074;2023-04-03T15:11:13;12.10;86.40
52036;DHT22;38046;49.448;32.074;2023-04-03T15:13:39;12.10;86.50
52036;DHT22;38046;49.448;32.074;2023-04-03T15:16:11;12.10;86.50
52036;DHT22;38046;49.448;32.074;2023-04-03T15:18:38;12.10;86.50
52036;DHT22;38046;49.448;32.074;2023-04-03T15:21:05;12.10;86.60
52036;DHT22;38046;49.448;32.074;2023-04-03T15:23:30;12.00;86.50
52036;DHT22;38046;49.448;32.074;2023-04-03T15:25:56;12.00;86.50
52036;DHT22;38046;49.448;32.074;2023-04-03T15:28:34;12.00;86.50
52036;DHT22;38046;49.448;32.074;2023-04-03T15:31:00;12.00;86.40
52036;DHT22;38046;49.448;32.074;2023-04-03T15:33:27;12.00;86.50
52036;DHT22;38046;49.448;32.074;2023-04-03T15:35:53;12.00;86.60
52036;DHT22;38046;49.448;32.074;2023-04-03T15:38:19;12.00;86.50
52036;DHT22;38046;49.448;32.074;2023-04-03T15:40:45;12.00;86.60
52036;DHT22;38046;49.448;32.074;2023-04-03T15:43:13;11.90;86.60
52036;DHT22;38046;49.448;32.074;2023-04-03T15:45:39;12.00;86.80
52036;DHT22;38046;49.448;32.074;2023-04-03T15:48:05;11.90;86.80
52036;DHT22;38046;49.448;32.074;2023-04-03T15:50:33;11.90;86.90
52036;DHT22;38046;49.448;32.074;2023-04-03T15:52:59;11.90;87.00
52036;DHT22;38046;49.448;32.074;2023-04-03T15:55:32;11.90;87.10
52036;DHT22;38046;49.448;32.074;2023-04-03T15:57:58;11.90;87.20
52036;DHT22;38046;49.448;32.074;2023-04-03T16:00:25;11.90;87.20
52036;DHT22;38046;49.448;32.074;2023-04-03T16:02:53;11.80;87.20
52036;DHT22;38046;49.448;32.074;2023-04-03T16:05:20;11.80;87.20
52036;DHT22;38046;49.448;32.074;2023-04-03T16:07:47;11.80;87.20
52036;DHT22;38046;49.448;32.074;2023-04-03T16:10:14;11.80;87.20
52036;DHT22;38046;49.448;32.074;2023-04-03T16:12:40;11.80;87.20
52036;DHT22;38046;49.448;32.074;2023-04-03T16:15:06;11.80;87.30
52036;DHT22;38046;49.448;32.074;2023-04-03T16:17:33;11.80;87.20
52036;DHT22;38046;49.448;32.074;2023-04-03T16:19:59;11.80;87.40
52036;DHT22;38046;49.448;32.074;2023-04-03T16:22:26;11.80;87.40
52036;DHT22;38046;49.448;32.074;2023-04-03T16:24:53;11.70;87.40
52036;DHT22;38046;49.448;32.074;2023-04-03T16:27:19;11.70;87.30
52036;DHT22;38046;49.448;32.074;2023-04-03T16:29:44;11.70;87.50
52036;DHT22;38046;49.448;32.074;2023-04-03T16:32:11;11.70;87.60
52036;DHT22;38046;49.448;32.074;2023-04-03T16:34:37;11.70;87.60
52036;DHT22;38046;49.448;32.074;2023-04-03T16:37:03;11.70;87.60
52036;DHT22;38046;49.448;32.074;2023-04-03T16:39:29;11.60;87.60
52036;DHT22;38046;49.448;32.074;2023-04-03T16:41:54;11.60;87.50
52036;DHT22;38046;49.448;32.074;2023-04-03T16:44:20;11.60;87.50
52036;DHT22;38046;49.448;32.074;2023-04-03T16:46:46;11.60;87.40
52036;DHT22;38046;49.448;32.074;2023-04-03T16:49:12;11.60;87.50
52036;DHT22;38046;49.448;32.074;2023-04-03T16:51:37;11.60;87.60
52036;DHT22;38046;49.448;32.074;2023-04-03T16:54:03;11.60;87.60
52036;DHT22;38046;49.448;32.074;2023-04-03T16:56:28;11.60;87.80
52036;DHT22;38046;49.448;32.074;2023-04-03T16:58:54;11.60;87.90
52036;DHT22;38046;49.448;32.074;2023-04-03T17:01:21;11.60;88.00
52036;DHT22;38046;49.448;32.074;2023-04-03T17:03:48;11.60;88.10
52036;DHT22;38046;49.448;32.074;2023-04-03T17:06:18;11.60;88.00
52036;DHT22;38046;49.448;32.074;2023-04-03T17:08:45;11.60;88.10
52036;DHT22;38046;49.448;32.074;2023-04-03T17:11:12;11.50;88.00
52036;DHT22;38046;49.448;32.074;2023-04-03T17:13:37;11.50;88.10
52036;DHT22;38046;49.448;32.074;2023-04-03T17:16:06;11.50;88.00
52036;DHT22;38046;49.448;32.074;2023-04-03T17:18:33;11.50;88.00
52036;DHT22;38046;49.448;32.074;2023-04-03T17:21:00;11.50;88.00